sensor_id;sensor_type;location;lat;lon;timestamp;temperature;humidity
10433;DHT22;5263;48.680;9.004;2022-12-18T00:02:13;-12.00;99.90
10433;DHT22;5263;48.680;9.004;2022-12-18T00:04:38;-11.80;99.90
10433;DHT22;5263;48.680;9.004;2022-12-18T00:07:04;-11.60;99.90
10433;DHT22;5263;48.680;9.004;2022-12-18T00:09:29;-11.50;99.90
10433;DHT22;5263;48.680;9.004;2022-12-18T00:11:55;-11.90;99.90
10433;DHT22;5263;48.680;9.004;2022-12-18T00:14:21;-12.00;99.90
10433;DHT22;5263;48.680;9.004;2022-12-18T00:16:47;-12.20;99.90
10433;DHT22;5263;48.680;9.004;2022-12-18T00:19:13;-12.30;99.90
10433;DHT22;5263;48.680;9.004;2022-12-18T00:21:39;-12.20;99.90
10433;DHT22;5263;48.680;9.004;2022-12-18T00:24:05;-12.10;99.90
10433;DHT22;5263;48.680;9.004;2022-12-18T00:26:33;-12.40;99.90
10433;DHT22;5263;48.680;9.004;2022-12-18T00:29:00;-12.30;99.90
10433;DHT22;5263;48.680;9.004;2022-12-18T00:31:26;-12.40;99.90
10433;DHT22;5263;48.680;9.004;2022-12-18T00:33:54;-12.30;99.90
10433;DHT22;5263;48.680;9.004;2022-12-18T00:36:22;-12.30;99.90
10433;DHT22;5263;48.680;9.004;2022-12-18T00:38:49;-12.50;99.90
10433;DHT22;5263;48.680;9.004;2022-12-18T00:41:16;-12.30;99.90
10433;DHT22;5263;48.680;9.004;2022-12-18T00:44:03;-12.20;99.90
10433;DHT22;5263;48.680;9.004;2022-12-18T00:46:29;-12.10;99.90
10433;DHT22;5263;48.680;9.004;2022-12-18T00:48:54;-12.10;99.90
10433;DHT22;5263;48.680;9.004;2022-12-18T00:51:20;-12.20;99.90
10433;DHT22;5263;48.680;9.004;2022-12-18T00:53:45;-12.20;99.90
10433;DHT22;5263;48.680;9.004;2022-12-18T00:56:11;-12.10;99.90
10433;DHT22;5263;48.680;9.004;2022-12-18T00:58:37;-12.10;99.90
10433;DHT22;5263;48.680;9.004;2022-12-18T01:01:04;-12.00;99.90
10433;DHT22;5263;48.680;9.004;2022-12-18T01:03:30;-12.30;99.90
10433;DHT22;5263;48.680;9.004;2022-12-18T01:05:56;-12.20;99.90
10433;DHT22;5263;48.680;9.004;2022-12-18T01:08:22;-12.10;99.90
10433;DHT22;5263;48.680;9.004;2022-12-18T01:10:47;-12.10;99.90
10433;DHT22;5263;48.680;9.004;2022-12-18T01:13:13;-12.20;99.90
10433;DHT22;5263;48.680;9.004;2022-12-18T01:15:39;-12.40;99.90
10433;DHT22;5263;48.680;9.004;2022-12-18T01:18:06;-12.50;99.90
10433;DHT22;5263;48.680;9.004;2022-12-18T01:20:31;-12.40;99.90
10433;DHT22;5263;48.680;9.004;2022-12-18T01:22:57;-12.30;99.90
10433;DHT22;5263;48.680;9.004;2022-12-18T01:25:23;-12.10;99.90
10433;DHT22;5263;48.680;9.004;2022-12-18T01:27:48;-12.10;99.90
10433;DHT22;5263;48.680;9.004;2022-12-18T01:30:14;-12.20;99.90
10433;DHT22;5263;48.680;9.004;2022-12-18T01:32:40;-12.20;99.90
10433;DHT22;5263;48.680;9.004;2022-12-18T01:35:06;-12.20;99.90
10433;DHT22;5263;48.680;9.004;2022-12-18T01:37:32;-12.10;99.90
10433;DHT22;5263;48.680;9.004;2022-12-18T01:39:57;-12.00;99.90
10433;DHT22;5263;48.680;9.004;2022-12-18T01:42:23;-12.00;99.90
10433;DHT22;5263;48.680;9.004;2022-12-18T01:45:05;-11.80;99.90
10433;DHT22;5263;48.680;9.004;2022-12-18T01:47:46;-12.00;99.90
10433;DHT22;5263;48.680;9.004;2022-12-18T01:50:35;-12.20;99.90
10433;DHT22;5263;48.680;9.004;2022-12-18T01:53:15;-12.20;99.90
10433;DHT22;5263;48.680;9.004;2022-12-18T01:55:48;-12.00;99.90
10433;DHT22;5263;48.680;9.004;2022-12-18T01:58:14;-12.10;99.90
10433;DHT22;5263;48.680;9.004;2022-12-18T02:00:40;-12.10;99.90
10433;DHT22;5263;48.680;9.004;2022-12-18T02:03:06;-12.00;99.90
10433;DHT22;5263;48.680;9.004;2022-12-18T02:05:51;-12.00;99.90
10433;DHT22;5263;48.680;9.004;2022-12-18T02:08:30;-11.90;99.90
10433;DHT22;5263;48.680;9.004;2022-12-18T02:14:00;-12.00;99.90
10433;DHT22;5263;48.680;9.004;2022-12-18T02:16:53;-12.00;99.90
10433;DHT22;5263;48.680;9.004;2022-12-18T02:28:11;-12.30;99.90
10433;DHT22;5263;48.680;9.004;2022-12-18T02:30:39;-12.30;99.90
10433;DHT22;5263;48.680;9.004;2022-12-18T02:33:08;-12.10;99.90
10433;DHT22;5263;48.680;9.004;2022-12-18T02:35:36;-12.30;99.90
10433;DHT22;5263;48.680;9.004;2022-12-18T02:38:03;-12.10;99.90
10433;DHT22;5263;48.680;9.004;2022-12-18T02:40:30;-12.10;99.90
10433;DHT22;5263;48.680;9.004;2022-12-18T02:43:23;-12.00;99.90
10433;DHT22;5263;48.680;9.004;2022-12-18T02:45:52;-11.90;99.90
10433;DHT22;5263;48.680;9.004;2022-12-18T02:48:25;-11.60;99.90
10433;DHT22;5263;48.680;9.004;2022-12-18T02:51:17;-11.40;99.90
10433;DHT22;5263;48.680;9.004;2022-12-18T02:54:10;-11.50;99.90
10433;DHT22;5263;48.680;9.004;2022-12-18T02:56:38;-11.20;99.90
10433;DHT22;5263;48.680;9.004;2022-12-18T02:59:09;-11.10;99.90
10433;DHT22;5263;48.680;9.004;2022-12-18T03:01:46;-11.10;99.90
10433;DHT22;5263;48.680;9.004;2022-12-18T03:04:36;-11.00;99.90
10433;DHT22;5263;48.680;9.004;2022-12-18T03:07:07;-10.80;99.90
10433;DHT22;5263;48.680;9.004;2022-12-18T03:09:38;-10.70;99.90
10433;DHT22;5263;48.680;9.004;2022-12-18T03:12:18;-10.70;99.90
10433;DHT22;5263;48.680;9.004;2022-12-18T03:15:06;-10.60;99.90
10433;DHT22;5263;48.680;9.004;2022-12-18T03:17:34;-10.50;99.90
10433;DHT22;5263;48.680;9.004;2022-12-18T03:20:07;-10.60;99.90
10433;DHT22;5263;48.680;9.004;2022-12-18T03:22:35;-10.50;99.90
10433;DHT22;5263;48.680;9.004;2022-12-18T03:25:06;-10.50;99.90
10433;DHT22;5263;48.680;9.004;2022-12-18T03:27:33;-10.40;99.90
10433;DHT22;5263;48.680;9.004;2022-12-18T03:30:04;-10.50;99.90
10433;DHT22;5263;48.680;9.004;2022-12-18T03:32:44;-10.20;99.90
10433;DHT22;5263;48.680;9.004;2022-12-18T03:35:14;-10.30;99.90
10433;DHT22;5263;48.680;9.004;2022-12-18T03:37:42;-10.20;99.90
10433;DHT22;5263;48.680;9.004;2022-12-18T03:40:08;-10.30;99.90
10433;DHT22;5263;48.680;9.004;2022-12-18T03:42:46;-10.50;99.90
10433;DHT22;5263;48.680;9.004;2022-12-18T03:45:41;-10.60;99.90
10433;DHT22;5263;48.680;9.004;2022-12-18T03:48:25;-10.60;99.90
10433;DHT22;5263;48.680;9.004;2022-12-18T03:51:01;-10.70;99.90
10433;DHT22;5263;48.680;9.004;2022-12-18T03:56:12;-11.00;99.90
10433;DHT22;5263;48.680;9.004;2022-12-18T03:58:40;-10.80;99.90
10433;DHT22;5263;48.680;9.004;2022-12-18T04:01:08;-10.80;99.90
10433;DHT22;5263;48.680;9.004;2022-12-18T04:03:36;-10.80;99.90
10433;DHT22;5263;48.680;9.004;2022-12-18T04:06:03;-10.80;99.90
10433;DHT22;5263;48.680;9.004;2022-12-18T04:08:29;-10.80;99.90
10433;DHT22;5263;48.680;9.004;2022-12-18T04:10:55;-10.80;99.90
10433;DHT22;5263;48.680;9.004;2022-12-18T04:13:27;-11.10;99.90
10433;DHT22;5263;48.680;9.004;2022-12-18T04:15:53;-11.10;99.90
10433;DHT22;5263;48.680;9.004;2022-12-18T04:18:19;-11.10;99.90
10433;DHT22;5263;48.680;9.004;2022-12-18T04:20:45;-11.00;99.90
10433;DHT22;5263;48.680;9.004;2022-12-18T04:23:10;-10.90;99.90
10433;DHT22;5263;48.680;9.004;2022-12-18T04:25:36;-11.00;99.90
10433;DHT22;5263;48.680;9.004;2022-12-18T04:28:02;-10.80;99.90
10433;DHT22;5263;48.680;9.004;2022-12-18T04:30:27;-10.70;99.90
10433;DHT22;5263;48.680;9.004;2022-12-18T04:32:53;-10.40;99.90
10433;DHT22;5263;48.680;9.004;2022-12-18T04:35:18;-10.40;99.90
10433;DHT22;5263;48.680;9.004;2022-12-18T04:37:44;-10.40;99.90
10433;DHT22;5263;48.680;9.004;2022-12-18T04:40:10;-10.40;99.90
10433;DHT22;5263;48.680;9.004;2022-12-18T04:42:36;-10.30;99.90
10433;DHT22;5263;48.680;9.004;2022-12-18T04:45:01;-10.40;99.90
10433;DHT22;5263;48.680;9.004;2022-12-18T04:47:27;-10.30;99.90
10433;DHT22;5263;48.680;9.004;2022-12-18T04:49:52;-10.20;99.90
10433;DHT22;5263;48.680;9.004;2022-12-18T04:52:18;-10.10;99.90
10433;DHT22;5263;48.680;9.004;2022-12-18T04:54:44;-10.10;99.90
10433;DHT22;5263;48.680;9.004;2022-12-18T04:57:09;-10.00;99.90
10433;DHT22;5263;48.680;9.004;2022-12-18T04:59:35;-10.20;99.90
10433;DHT22;5263;48.680;9.004;2022-12-18T05:02:01;-10.20;99.90
10433;DHT22;5263;48.680;9.004;2022-12-18T05:04:26;-10.10;99.90
10433;DHT22;5263;48.680;9.004;2022-12-18T05:06:52;-10.10;99.90
10433;DHT22;5263;48.680;9.004;2022-12-18T05:09:17;-10.20;99.90
10433;DHT22;5263;48.680;9.004;2022-12-18T05:11:43;-10.20;99.90
10433;DHT22;5263;48.680;9.004;2022-12-18T05:14:08;-10.30;99.90
10433;DHT22;5263;48.680;9.004;2022-12-18T05:16:34;-10.40;99.90
10433;DHT22;5263;48.680;9.004;2022-12-18T05:19:00;-10.40;99.90
10433;DHT22;5263;48.680;9.004;2022-12-18T05:21:25;-10.30;99.90
10433;DHT22;5263;48.680;9.004;2022-12-18T05:23:51;-10.30;99.90
10433;DHT22;5263;48.680;9.004;2022-12-18T05:26:17;-10.30;99.90
10433;DHT22;5263;48.680;9.004;2022-12-18T05:28:43;-10.20;99.90
10433;DHT22;5263;48.680;9.004;2022-12-18T05:31:09;-10.40;99.90
10433;DHT22;5263;48.680;9.004;2022-12-18T05:33:35;-10.20;99.90
10433;DHT22;5263;48.680;9.004;2022-12-18T05:36:02;-10.20;99.90
10433;DHT22;5263;48.680;9.004;2022-12-18T05:38:30;-10.30;99.90
10433;DHT22;5263;48.680;9.004;2022-12-18T05:40:56;-10.30;99.90
10433;DHT22;5263;48.680;9.004;2022-12-18T05:43:23;-10.30;99.90
10433;DHT22;5263;48.680;9.004;2022-12-18T05:45:49;-10.30;99.90
10433;DHT22;5263;48.680;9.004;2022-12-18T05:48:15;-10.30;99.90
10433;DHT22;5263;48.680;9.004;2022-12-18T05:50:43;-10.30;99.90
10433;DHT22;5263;48.680;9.004;2022-12-18T05:53:11;-10.20;99.90
10433;DHT22;5263;48.680;9.004;2022-12-18T05:55:38;-10.30;99.90
10433;DHT22;5263;48.680;9.004;2022-12-18T05:58:05;-10.10;99.90
10433;DHT22;5263;48.680;9.004;2022-12-18T06:00:32;-10.00;99.90
10433;DHT22;5263;48.680;9.004;2022-12-18T06:03:00;-9.90;99.90
10433;DHT22;5263;48.680;9.004;2022-12-18T06:05:26;-10.00;99.90
10433;DHT22;5263;48.680;9.004;2022-12-18T06:07:51;-10.00;99.90
10433;DHT22;5263;48.680;9.004;2022-12-18T06:10:17;-10.00;99.90
10433;DHT22;5263;48.680;9.004;2022-12-18T06:12:43;-9.90;99.90
10433;DHT22;5263;48.680;9.004;2022-12-18T06:15:09;-9.90;99.90
10433;DHT22;5263;48.680;9.004;2022-12-18T06:17:35;-9.90;99.90
10433;DHT22;5263;48.680;9.004;2022-12-18T06:20:01;-9.90;99.90
10433;DHT22;5263;48.680;9.004;2022-12-18T06:22:27;-10.00;99.90
10433;DHT22;5263;48.680;9.004;2022-12-18T06:24:53;-10.10;99.90
10433;DHT22;5263;48.680;9.004;2022-12-18T06:27:19;-10.20;99.90
10433;DHT22;5263;48.680;9.004;2022-12-18T06:29:44;-10.20;99.90
10433;DHT22;5263;48.680;9.004;2022-12-18T06:32:10;-10.20;99.90
10433;DHT22;5263;48.680;9.004;2022-12-18T06:34:39;-10.30;99.90
10433;DHT22;5263;48.680;9.004;2022-12-18T06:37:05;-10.30;99.90
10433;DHT22;5263;48.680;9.004;2022-12-18T06:39:30;-10.30;99.90
10433;DHT22;5263;48.680;9.004;2022-12-18T06:41:56;-10.50;99.90
10433;DHT22;5263;48.680;9.004;2022-12-18T06:44:22;-10.40;99.90
10433;DHT22;5263;48.680;9.004;2022-12-18T06:46:47;-10.40;99.90
10433;DHT22;5263;48.680;9.004;2022-12-18T06:49:13;-10.50;99.90
10433;DHT22;5263;48.680;9.004;2022-12-18T06:51:39;-10.50;99.90
10433;DHT22;5263;48.680;9.004;2022-12-18T06:54:04;-10.60;99.90
10433;DHT22;5263;48.680;9.004;2022-12-18T06:56:30;-10.50;99.90
10433;DHT22;5263;48.680;9.004;2022-12-18T06:58:56;-10.60;99.90
10433;DHT22;5263;48.680;9.004;2022-12-18T07:01:22;-10.50;99.90
10433;DHT22;5263;48.680;9.004;2022-12-18T07:03:53;-10.50;99.90
10433;DHT22;5263;48.680;9.004;2022-12-18T07:06:21;-9.80;99.90
10433;DHT22;5263;48.680;9.004;2022-12-18T07:08:48;-9.90;99.90
10433;DHT22;5263;48.680;9.004;2022-12-18T07:11:14;-10.00;99.90
10433;DHT22;5263;48.680;9.004;2022-12-18T07:13:40;-10.10;99.90
10433;DHT22;5263;48.680;9.004;2022-12-18T07:16:09;-10.20;99.90
10433;DHT22;5263;48.680;9.004;2022-12-18T07:18:35;-10.30;99.90
10433;DHT22;5263;48.680;9.004;2022-12-18T07:21:05;-10.20;99.90
10433;DHT22;5263;48.680;9.004;2022-12-18T07:23:32;-10.20;99.90
10433;DHT22;5263;48.680;9.004;2022-12-18T07:26:08;-10.20;99.90
10433;DHT22;5263;48.680;9.004;2022-12-18T07:28:34;-10.10;99.90
10433;DHT22;5263;48.680;9.004;2022-12-18T07:31:09;-10.20;99.90
10433;DHT22;5263;48.680;9.004;2022-12-18T07:33:35;-10.10;99.90
10433;DHT22;5263;48.680;9.004;2022-12-18T07:36:05;-10.00;99.90
10433;DHT22;5263;48.680;9.004;2022-12-18T07:38:31;-9.90;99.90
10433;DHT22;5263;48.680;9.004;2022-12-18T07:41:05;-9.80;99.90
10433;DHT22;5263;48.680;9.004;2022-12-18T07:43:32;-9.50;99.90
10433;DHT22;5263;48.680;9.004;2022-12-18T07:45:57;-9.60;99.90
10433;DHT22;5263;48.680;9.004;2022-12-18T07:48:23;-9.50;99.90
10433;DHT22;5263;48.680;9.004;2022-12-18T07:50:49;-9.50;99.90
10433;DHT22;5263;48.680;9.004;2022-12-18T07:53:14;-9.30;99.90
10433;DHT22;5263;48.680;9.004;2022-12-18T07:55:41;-9.20;99.90
10433;DHT22;5263;48.680;9.004;2022-12-18T07:58:07;-9.20;99.90
10433;DHT22;5263;48.680;9.004;2022-12-18T08:00:33;-9.20;99.90
10433;DHT22;5263;48.680;9.004;2022-12-18T08:02:59;-9.20;99.90
10433;DHT22;5263;48.680;9.004;2022-12-18T08:05:25;-9.10;99.90
10433;DHT22;5263;48.680;9.004;2022-12-18T08:07:51;-8.90;99.90
10433;DHT22;5263;48.680;9.004;2022-12-18T08:10:17;-8.80;99.90
10433;DHT22;5263;48.680;9.004;2022-12-18T08:12:43;-8.60;99.90
10433;DHT22;5263;48.680;9.004;2022-12-18T08:15:09;-8.40;99.90
10433;DHT22;5263;48.680;9.004;2022-12-18T08:17:34;-8.30;99.90
10433;DHT22;5263;48.680;9.004;2022-12-18T08:20:00;-8.20;99.90
10433;DHT22;5263;48.680;9.004;2022-12-18T08:22:26;-8.10;99.90
10433;DHT22;5263;48.680;9.004;2022-12-18T08:24:51;-8.00;99.90
10433;DHT22;5263;48.680;9.004;2022-12-18T08:27:17;-7.90;99.90
10433;DHT22;5263;48.680;9.004;2022-12-18T08:29:42;-7.80;99.90
10433;DHT22;5263;48.680;9.004;2022-12-18T08:32:08;-7.70;99.90
10433;DHT22;5263;48.680;9.004;2022-12-18T08:34:34;-7.50;99.90
10433;DHT22;5263;48.680;9.004;2022-12-18T08:36:59;-7.30;99.90
10433;DHT22;5263;48.680;9.004;2022-12-18T08:39:25;-7.30;99.90
10433;DHT22;5263;48.680;9.004;2022-12-18T08:41:50;-7.10;99.90
10433;DHT22;5263;48.680;9.004;2022-12-18T08:44:34;-7.00;99.90
10433;DHT22;5263;48.680;9.004;2022-12-18T08:47:03;-6.70;99.90
10433;DHT22;5263;48.680;9.004;2022-12-18T08:49:29;-6.60;99.90
10433;DHT22;5263;48.680;9.004;2022-12-18T08:51:56;-6.50;99.90
10433;DHT22;5263;48.680;9.004;2022-12-18T08:54:23;-6.10;99.90
10433;DHT22;5263;48.680;9.004;2022-12-18T08:56:49;-5.70;99.90
10433;DHT22;5263;48.680;9.004;2022-12-18T08:59:18;-5.40;99.90
10433;DHT22;5263;48.680;9.004;2022-12-18T09:01:45;-5.40;99.90
10433;DHT22;5263;48.680;9.004;2022-12-18T09:04:11;-5.40;99.90
10433;DHT22;5263;48.680;9.004;2022-12-18T09:06:37;-5.40;99.90
10433;DHT22;5263;48.680;9.004;2022-12-18T09:09:04;-5.40;99.90
10433;DHT22;5263;48.680;9.004;2022-12-18T09:11:30;-5.10;99.90
10433;DHT22;5263;48.680;9.004;2022-12-18T09:13:57;-5.20;99.90
10433;DHT22;5263;48.680;9.004;2022-12-18T09:16:25;-5.10;99.90
10433;DHT22;5263;48.680;9.004;2022-12-18T09:18:51;-4.60;99.90
10433;DHT22;5263;48.680;9.004;2022-12-18T09:21:19;-4.40;99.90
10433;DHT22;5263;48.680;9.004;2022-12-18T09:23:52;-4.40;99.90
10433;DHT22;5263;48.680;9.004;2022-12-18T09:26:18;-4.10;99.90
10433;DHT22;5263;48.680;9.004;2022-12-18T09:28:44;-3.70;99.90
10433;DHT22;5263;48.680;9.004;2022-12-18T09:31:11;-3.70;99.90
10433;DHT22;5263;48.680;9.004;2022-12-18T09:33:40;-3.80;99.90
10433;DHT22;5263;48.680;9.004;2022-12-18T09:36:08;-3.30;99.90
10433;DHT22;5263;48.680;9.004;2022-12-18T09:38:34;-3.00;99.90
10433;DHT22;5263;48.680;9.004;2022-12-18T09:43:45;-2.10;99.90
10433;DHT22;5263;48.680;9.004;2022-12-18T09:46:17;-0.10;99.90
10433;DHT22;5263;48.680;9.004;2022-12-18T09:48:47;1.40;99.90
10433;DHT22;5263;48.680;9.004;2022-12-18T09:51:32;3.30;99.90
10433;DHT22;5263;48.680;9.004;2022-12-18T09:54:13;4.00;99.90
10433;DHT22;5263;48.680;9.004;2022-12-18T09:56:41;3.60;99.90
10433;DHT22;5263;48.680;9.004;2022-12-18T10:02:15;6.80;97.10
10433;DHT22;5263;48.680;9.004;2022-12-18T10:04:41;7.50;92.20
10433;DHT22;5263;48.680;9.004;2022-12-18T10:07:20;7.80;90.00
10433;DHT22;5263;48.680;9.004;2022-12-18T10:12:31;6.50;87.70
10433;DHT22;5263;48.680;9.004;2022-12-18T10:15:07;6.10;88.60
10433;DHT22;5263;48.680;9.004;2022-12-18T10:17:51;5.50;91.30
10433;DHT22;5263;48.680;9.004;2022-12-18T10:20:38;4.80;90.80
10433;DHT22;5263;48.680;9.004;2022-12-18T10:26:03;3.60;93.40
10433;DHT22;5263;48.680;9.004;2022-12-18T10:28:31;3.90;95.00
10433;DHT22;5263;48.680;9.004;2022-12-18T10:30:58;4.10;94.10
10433;DHT22;5263;48.680;9.004;2022-12-18T10:33:28;4.60;94.20
10433;DHT22;5263;48.680;9.004;2022-12-18T10:35:55;4.90;94.00
10433;DHT22;5263;48.680;9.004;2022-12-18T10:38:31;3.00;95.50
10433;DHT22;5263;48.680;9.004;2022-12-18T10:40:59;1.80;98.30
10433;DHT22;5263;48.680;9.004;2022-12-18T10:54:26;2.90;99.90
10433;DHT22;5263;48.680;9.004;2022-12-18T10:57:16;3.90;99.30
10433;DHT22;5263;48.680;9.004;2022-12-18T10:59:57;4.60;96.90
10433;DHT22;5263;48.680;9.004;2022-12-18T11:02:36;5.20;95.20
10433;DHT22;5263;48.680;9.004;2022-12-18T11:05:04;4.70;96.70
10433;DHT22;5263;48.680;9.004;2022-12-18T11:10:18;5.50;94.50
10433;DHT22;5263;48.680;9.004;2022-12-18T11:12:44;5.50;94.00
10433;DHT22;5263;48.680;9.004;2022-12-18T11:15:23;5.10;95.20
10433;DHT22;5263;48.680;9.004;2022-12-18T11:17:51;6.60;94.70
10433;DHT22;5263;48.680;9.004;2022-12-18T11:23:10;6.80;92.70
10433;DHT22;5263;48.680;9.004;2022-12-18T11:25:37;6.60;92.30
10433;DHT22;5263;48.680;9.004;2022-12-18T11:28:24;7.00;90.90
10433;DHT22;5263;48.680;9.004;2022-12-18T11:31:22;5.50;93.50
10433;DHT22;5263;48.680;9.004;2022-12-18T11:36:46;6.50;92.00
10433;DHT22;5263;48.680;9.004;2022-12-18T11:39:34;6.30;93.10
10433;DHT22;5263;48.680;9.004;2022-12-18T11:44:50;6.10;92.30
10433;DHT22;5263;48.680;9.004;2022-12-18T11:47:47;6.50;93.50
10433;DHT22;5263;48.680;9.004;2022-12-18T11:50:24;6.70;91.30
10433;DHT22;5263;48.680;9.004;2022-12-18T11:52:50;6.40;92.50
10433;DHT22;5263;48.680;9.004;2022-12-18T11:55:58;5.10;93.40
10433;DHT22;5263;48.680;9.004;2022-12-18T12:00:52;7.20;92.70
10433;DHT22;5263;48.680;9.004;2022-12-18T12:03:21;6.00;91.70
10433;DHT22;5263;48.680;9.004;2022-12-18T12:06:23;5.80;93.40
10433;DHT22;5263;48.680;9.004;2022-12-18T12:11:56;6.00;93.50
10433;DHT22;5263;48.680;9.004;2022-12-18T12:27:53;3.30;98.00
10433;DHT22;5263;48.680;9.004;2022-12-18T12:30:21;3.10;99.40
10433;DHT22;5263;48.680;9.004;2022-12-18T12:33:05;2.90;99.90
10433;DHT22;5263;48.680;9.004;2022-12-18T12:38:41;2.80;99.70
10433;DHT22;5263;48.680;9.004;2022-12-18T12:41:13;1.90;99.90
10433;DHT22;5263;48.680;9.004;2022-12-18T12:44:01;1.80;99.90
10433;DHT22;5263;48.680;9.004;2022-12-18T12:46:31;1.50;99.90
10433;DHT22;5263;48.680;9.004;2022-12-18T12:49:19;0.70;99.90
10433;DHT22;5263;48.680;9.004;2022-12-18T12:51:53;1.00;99.90
10433;DHT22;5263;48.680;9.004;2022-12-18T12:54:24;0.20;99.90
10433;DHT22;5263;48.680;9.004;2022-12-18T12:57:02;0.00;99.90
10433;DHT22;5263;48.680;9.004;2022-12-18T13:10:26;1.30;99.90
10433;DHT22;5263;48.680;9.004;2022-12-18T13:15:28;1.70;99.90
10433;DHT22;5263;48.680;9.004;2022-12-18T13:18:10;2.50;99.90
10433;DHT22;5263;48.680;9.004;2022-12-18T13:20:51;2.50;99.90
10433;DHT22;5263;48.680;9.004;2022-12-18T13:23:31;2.30;99.90
10433;DHT22;5263;48.680;9.004;2022-12-18T13:31:01;1.10;99.90
10433;DHT22;5263;48.680;9.004;2022-12-18T13:33:43;0.70;99.90
10433;DHT22;5263;48.680;9.004;2022-12-18T13:36:30;0.30;99.90
10433;DHT22;5263;48.680;9.004;2022-12-18T13:39:32;0.30;99.90
10433;DHT22;5263;48.680;9.004;2022-12-18T13:44:38;0.60;99.90
10433;DHT22;5263;48.680;9.004;2022-12-18T13:47:32;0.30;99.90
10433;DHT22;5263;48.680;9.004;2022-12-18T13:49:59;0.40;99.90
10433;DHT22;5263;48.680;9.004;2022-12-18T13:52:33;-0.10;99.90
10433;DHT22;5263;48.680;9.004;2022-12-18T13:55:02;-0.30;99.90
10433;DHT22;5263;48.680;9.004;2022-12-18T13:57:37;-1.00;99.90
10433;DHT22;5263;48.680;9.004;2022-12-18T14:00:26;-0.90;99.90
10433;DHT22;5263;48.680;9.004;2022-12-18T14:02:53;-1.10;99.90
10433;DHT22;5263;48.680;9.004;2022-12-18T14:05:26;-1.00;99.90
10433;DHT22;5263;48.680;9.004;2022-12-18T14:07:53;-0.90;99.90
10433;DHT22;5263;48.680;9.004;2022-12-18T14:10:20;-0.40;99.90
10433;DHT22;5263;48.680;9.004;2022-12-18T14:12:50;-0.40;99.90
10433;DHT22;5263;48.680;9.004;2022-12-18T14:18:09;-0.50;99.90
10433;DHT22;5263;48.680;9.004;2022-12-18T14:20:43;-0.60;99.90
10433;DHT22;5263;48.680;9.004;2022-12-18T14:23:32;-0.60;99.90
10433;DHT22;5263;48.680;9.004;2022-12-18T14:26:00;-0.70;99.90
10433;DHT22;5263;48.680;9.004;2022-12-18T14:28:29;-0.80;99.90
10433;DHT22;5263;48.680;9.004;2022-12-18T14:30:55;-1.50;99.90
10433;DHT22;5263;48.680;9.004;2022-12-18T14:33:26;-1.30;99.90
10433;DHT22;5263;48.680;9.004;2022-12-18T14:36:01;-1.60;99.90
10433;DHT22;5263;48.680;9.004;2022-12-18T14:38:34;-2.00;99.90
10433;DHT22;5263;48.680;9.004;2022-12-18T14:41:10;-2.00;99.90
10433;DHT22;5263;48.680;9.004;2022-12-18T14:43:41;-1.90;99.90
10433;DHT22;5263;48.680;9.004;2022-12-18T14:46:28;-1.80;99.90
10433;DHT22;5263;48.680;9.004;2022-12-18T14:48:55;-1.90;99.90
10433;DHT22;5263;48.680;9.004;2022-12-18T14:51:27;-2.00;99.90
10433;DHT22;5263;48.680;9.004;2022-12-18T14:54:01;-2.10;99.90
10433;DHT22;5263;48.680;9.004;2022-12-18T14:56:33;-2.20;99.90
10433;DHT22;5263;48.680;9.004;2022-12-18T14:59:13;-2.30;99.90
10433;DHT22;5263;48.680;9.004;2022-12-18T15:01:59;-2.60;99.90
10433;DHT22;5263;48.680;9.004;2022-12-18T15:04:29;-2.80;99.90
10433;DHT22;5263;48.680;9.004;2022-12-18T15:07:12;-2.60;99.90
10433;DHT22;5263;48.680;9.004;2022-12-18T15:09:40;-2.80;99.90
10433;DHT22;5263;48.680;9.004;2022-12-18T15:12:22;-2.80;99.90
10433;DHT22;5263;48.680;9.004;2022-12-18T15:14:50;-3.10;99.90
10433;DHT22;5263;48.680;9.004;2022-12-18T15:17:21;-3.00;99.90
10433;DHT22;5263;48.680;9.004;2022-12-18T15:19:48;-3.20;99.90
10433;DHT22;5263;48.680;9.004;2022-12-18T15:22:21;-3.40;99.90
10433;DHT22;5263;48.680;9.004;2022-12-18T15:24:47;-3.50;99.90
10433;DHT22;5263;48.680;9.004;2022-12-18T15:27:33;-3.30;99.90
10433;DHT22;5263;48.680;9.004;2022-12-18T15:32:36;-3.30;99.90
10433;DHT22;5263;48.680;9.004;2022-12-18T15:35:17;-3.50;99.90
10433;DHT22;5263;48.680;9.004;2022-12-18T15:37:43;-3.60;99.90
10433;DHT22;5263;48.680;9.004;2022-12-18T15:40:35;-3.70;99.90
10433;DHT22;5263;48.680;9.004;2022-12-18T15:43:01;-3.90;99.90
10433;DHT22;5263;48.680;9.004;2022-12-18T15:45:45;-3.80;99.90
10433;DHT22;5263;48.680;9.004;2022-12-18T15:48:20;-3.90;99.90
10433;DHT22;5263;48.680;9.004;2022-12-18T15:50:46;-4.00;99.90
10433;DHT22;5263;48.680;9.004;2022-12-18T15:53:11;-4.00;99.90
10433;DHT22;5263;48.680;9.004;2022-12-18T15:55:37;-4.00;99.90
10433;DHT22;5263;48.680;9.004;2022-12-18T15:58:21;-4.00;99.90
10433;DHT22;5263;48.680;9.004;2022-12-18T16:00:47;-4.10;99.90
10433;DHT22;5263;48.680;9.004;2022-12-18T16:03:13;-4.10;99.90
10433;DHT22;5263;48.680;9.004;2022-12-18T16:05:38;-4.00;99.90
10433;DHT22;5263;48.680;9.004;2022-12-18T16:08:04;-4.00;99.90
10433;DHT22;5263;48.680;9.004;2022-12-18T16:10:30;-4.00;99.90
10433;DHT22;5263;48.680;9.004;2022-12-18T16:12:56;-4.10;99.90
10433;DHT22;5263;48.680;9.004;2022-12-18T16:15:21;-3.80;99.90
10433;DHT22;5263;48.680;9.004;2022-12-18T16:17:47;-4.00;99.90
10433;DHT22;5263;48.680;9.004;2022-12-18T16:20:15;-4.20;99.90
10433;DHT22;5263;48.680;9.004;2022-12-18T16:22:43;-4.20;99.90
10433;DHT22;5263;48.680;9.004;2022-12-18T16:25:21;-4.10;99.90
10433;DHT22;5263;48.680;9.004;2022-12-18T16:27:47;-4.00;99.90
10433;DHT22;5263;48.680;9.004;2022-12-18T16:30:15;-3.90;99.90
10433;DHT22;5263;48.680;9.004;2022-12-18T16:32:41;-3.80;99.90
10433;DHT22;5263;48.680;9.004;2022-12-18T16:35:09;-3.80;99.90
10433;DHT22;5263;48.680;9.004;2022-12-18T16:37:35;-3.70;99.90
10433;DHT22;5263;48.680;9.004;2022-12-18T16:40:01;-3.80;99.90
10433;DHT22;5263;48.680;9.004;2022-12-18T16:42:26;-3.80;99.90
10433;DHT22;5263;48.680;9.004;2022-12-18T16:44:52;-2.80;99.90
10433;DHT22;5263;48.680;9.004;2022-12-18T16:47:18;-3.70;99.90
10433;DHT22;5263;48.680;9.004;2022-12-18T16:49:44;-3.80;99.90
10433;DHT22;5263;48.680;9.004;2022-12-18T16:52:10;-3.80;99.90
10433;DHT22;5263;48.680;9.004;2022-12-18T16:54:36;-3.80;99.90
10433;DHT22;5263;48.680;9.004;2022-12-18T16:57:02;-3.80;99.90
10433;DHT22;5263;48.680;9.004;2022-12-18T16:59:29;-3.80;99.90
10433;DHT22;5263;48.680;9.004;2022-12-18T17:01:55;-3.80;99.90
10433;DHT22;5263;48.680;9.004;2022-12-18T17:04:21;-3.80;99.90
10433;DHT22;5263;48.680;9.004;2022-12-18T17:06:47;-3.80;99.90
10433;DHT22;5263;48.680;9.004;2022-12-18T17:09:17;-3.80;99.90
10433;DHT22;5263;48.680;9.004;2022-12-18T17:11:53;-3.80;99.90
10433;DHT22;5263;48.680;9.004;2022-12-18T17:14:21;-4.40;99.90
10433;DHT22;5263;48.680;9.004;2022-12-18T17:16:47;-3.80;99.90
10433;DHT22;5263;48.680;9.004;2022-12-18T17:19:14;-3.70;99.90
10433;DHT22;5263;48.680;9.004;2022-12-18T17:21:41;-3.50;99.90
10433;DHT22;5263;48.680;9.004;2022-12-18T17:24:07;-3.50;99.90
10433;DHT22;5263;48.680;9.004;2022-12-18T17:26:32;-3.50;99.90
10433;DHT22;5263;48.680;9.004;2022-12-18T17:28:59;-3.40;99.90
10433;DHT22;5263;48.680;9.004;2022-12-18T17:31:27;-3.40;99.90
10433;DHT22;5263;48.680;9.004;2022-12-18T17:33:52;-3.40;99.90
10433;DHT22;5263;48.680;9.004;2022-12-18T17:36:19;-3.40;99.90
10433;DHT22;5263;48.680;9.004;2022-12-18T17:38:59;-3.40;99.90